Brave Heart — ODVF — position and weather

sailwx.info

Track history (hours):
 
Tides and Currents Weather Stations Pressure Air Temp Water Temp Dewpoint Dewpoint Depression Visibility Wind Speed Wind Dir Waves Ship Positions

Brave Heart

Last reported at 2018-Feb-19 23:10 UTC. Time now 2018-Feb-23 20:28 UTC.
Position N 36°04' E 030°31'.

; draft 7.4 m.

MMSI: 450535000.

Date/timePositionNaut miles runAvg speedWind from/ knotsBaromVisibWave heightAir tempDewpointWater temp
2018-Feb-19 23:10N 36°04' E 030°31'4 9.6
2018-Feb-19 22:44N 36°04' E 030°26'  
2018-Feb-15 12:33N 46°18' E 030°55'1 8.9
2018-Feb-15 12:29N 46°18' E 030°55'4 8.8
2018-Feb-15 12:00N 46°22' E 030°55'5 9.0
2018-Feb-15 11:30N 46°27' E 030°55'5 9.3
2018-Feb-15 11:00N 46°31' E 030°55'25 9.3
2018-Feb-15 08:19N 46°35' E 031°31'3 9.1
2018-Feb-15 08:00N 46°35' E 031°36'5 9.1
2018-Feb-15 07:29N 46°36' E 031°42'4 9.0
2018-Feb-15 07:00N 46°36' E 031°49'4 8.9
2018-Feb-15 06:31N 46°38' E 031°54'4 8.5
2018-Feb-15 06:00N 46°42' E 031°56'4 8.1
2018-Feb-15 05:30N 46°46' E 031°54'4 7.7
2018-Feb-15 05:00N 46°49' E 031°55'1 2.8
2018-Feb-15 04:30N 46°50' E 031°57'0 0.0
2018-Feb-15 04:00N 46°50' E 031°57'0 0.0
2018-Feb-15 03:30N 46°50' E 031°57'0 0.0
2018-Feb-15 03:00N 46°50' E 031°57'0 0.0
2018-Feb-15 02:30N 46°50' E 031°57'0 0.0
2018-Feb-15 01:59N 46°50' E 031°57'0 0.0
2018-Feb-15 01:29N 46°50' E 031°57'0 0.0
2018-Feb-15 00:59N 46°50' E 031°57'0 0.0
2018-Feb-15 00:29N 46°50' E 031°57'0 0.0
2018-Feb-14 23:59N 46°50' E 031°57'0 0.0
2018-Feb-14 23:29N 46°50' E 031°57'0 0.0
2018-Feb-14 22:59N 46°50' E 031°57'0 0.0
2018-Feb-14 22:29N 46°50' E 031°57'0 0.0
2018-Feb-14 21:59N 46°50' E 031°57'0 0.0
2018-Feb-14 21:29N 46°50' E 031°57'0 0.0
2018-Feb-14 20:59N 46°50' E 031°57'0 0.0
2018-Feb-14 20:29N 46°50' E 031°57'0 0.0
2018-Feb-14 19:56N 46°50' E 031°57'0 0.0
2018-Feb-14 19:29N 46°50' E 031°57'0 0.0
2018-Feb-14 18:59N 46°50' E 031°57'0 0.0
2018-Feb-14 18:26N 46°50' E 031°57'0 0.0
2018-Feb-14 17:59N 46°50' E 031°57'0 0.0
2018-Feb-14 17:29N 46°50' E 031°57'0 0.0
2018-Feb-14 16:59N 46°50' E 031°57'0 0.0
2018-Feb-14 16:29N 46°50' E 031°57'0 0.0
2018-Feb-14 15:59N 46°50' E 031°57'0 0.0
2018-Feb-14 15:29N 46°50' E 031°57'0 0.0
2018-Feb-14 14:59N 46°50' E 031°57'0 0.0
2018-Feb-14 14:26N 46°50' E 031°57'0 0.0
2018-Feb-14 13:59N 46°50' E 031°57'0 0.0
2018-Feb-14 13:29N 46°50' E 031°57'0 0.0
2018-Feb-14 12:59N 46°50' E 031°57'0 0.0
2018-Feb-14 12:29N 46°50' E 031°57'0 0.0
2018-Feb-14 11:59N 46°50' E 031°57'0 0.0
2018-Feb-14 11:29N 46°50' E 031°57'0 0.0
2018-Feb-14 10:59N 46°50' E 031°57'0 0.0
2018-Feb-14 10:29N 46°50' E 031°57'0 0.0
2018-Feb-14 09:59N 46°50' E 031°57'0 0.0
2018-Feb-14 09:30N 46°50' E 031°57'0 0.0
2018-Feb-14 08:58N 46°50' E 031°57'0 0.0
2018-Feb-14 08:28N 46°50' E 031°57'0 0.0
2018-Feb-14 07:58N 46°50' E 031°57'0 0.0
2018-Feb-14 07:28N 46°50' E 031°57'0 0.0
2018-Feb-14 06:58N 46°50' E 031°57'0 0.0
2018-Feb-14 06:28N 46°50' E 031°57'0 0.0
2018-Feb-14 05:58N 46°50' E 031°57'0 0.0
2018-Feb-14 05:25N 46°50' E 031°57'0 0.0
2018-Feb-14 04:58N 46°50' E 031°57'0 0.0
2018-Feb-14 04:28N 46°50' E 031°57'0 0.0
2018-Feb-14 03:58N 46°50' E 031°57'0 0.0
2018-Feb-14 03:28N 46°50' E 031°57'0 0.0
2018-Feb-14 02:58N 46°50' E 031°57'0 0.0
2018-Feb-14 02:31N 46°50' E 031°57'0 0.0
2018-Feb-14 02:00N 46°50' E 031°57'0 0.0
2018-Feb-14 01:30N 46°50' E 031°57'0 0.0
2018-Feb-14 01:00N 46°50' E 031°57'0 0.0
2018-Feb-14 00:30N 46°50' E 031°57'0 0.0
2018-Feb-14 00:00N 46°50' E 031°57'0 0.0
2018-Feb-13 23:30N 46°50' E 031°57'0 0.0
2018-Feb-13 23:00N 46°50' E 031°57'0 0.0
2018-Feb-13 22:30N 46°50' E 031°57'0 0.0
2018-Feb-13 22:00N 46°50' E 031°57'0 0.0
2018-Feb-13 21:30N 46°50' E 031°57'0 0.0
2018-Feb-13 21:00N 46°50' E 031°57'0 0.0
2018-Feb-13 20:30N 46°50' E 031°57'0 0.0
2018-Feb-13 20:00N 46°50' E 031°57'0 0.0
2018-Feb-13 19:30N 46°50' E 031°57'0 0.0
2018-Feb-13 18:57N 46°50' E 031°57'0 0.0
2018-Feb-13 18:30N 46°50' E 031°57'0 0.0
2018-Feb-13 18:00N 46°50' E 031°57'0 0.0
2018-Feb-13 17:30N 46°50' E 031°57'0 0.0
2018-Feb-13 17:00N 46°50' E 031°57'0 0.0
2018-Feb-13 16:30N 46°50' E 031°57'0 0.0
2018-Feb-13 16:00N 46°50' E 031°57'0 0.0
2018-Feb-13 15:30N 46°50' E 031°57'0 0.0
2018-Feb-13 15:00N 46°50' E 031°57'0 0.0
2018-Feb-13 14:30N 46°50' E 031°57'0 0.0
2018-Feb-13 14:00N 46°50' E 031°57'0 0.0
2018-Feb-13 13:30N 46°50' E 031°57'0 0.0
2018-Feb-13 13:00N 46°50' E 031°57'0 0.0
2018-Feb-13 12:30N 46°50' E 031°57'0 0.0
2018-Feb-13 12:00N 46°50' E 031°57'0 0.0
2018-Feb-13 11:30N 46°50' E 031°57'0 0.0
2018-Feb-13 11:00N 46°50' E 031°57'0 0.0
2018-Feb-13 10:30N 46°50' E 031°57'0 0.0
2018-Feb-13 10:00N 46°50' E 031°57'0 0.0
2018-Feb-13 09:30N 46°50' E 031°57'0 0.0
2018-Feb-13 09:00N 46°50' E 031°57'0 0.0
2018-Feb-13 08:30N 46°50' E 031°57'0 0.0
2018-Feb-13 08:00N 46°50' E 031°57'0 0.0
2018-Feb-13 07:30N 46°50' E 031°57'0 0.0
2018-Feb-13 07:00N 46°50' E 031°57'0 0.0
2018-Feb-13 06:27N 46°50' E 031°57'0 0.0
2018-Feb-13 06:00N 46°50' E 031°57'0 0.0
2018-Feb-13 05:30N 46°50' E 031°57'0 0.0
2018-Feb-13 05:00N 46°50' E 031°57'0 0.0
2018-Feb-13 04:30N 46°50' E 031°57'0 0.0
2018-Feb-13 04:00N 46°50' E 031°57'0 0.0
2018-Feb-13 03:30N 46°50' E 031°57'0 0.0
2018-Feb-13 03:00N 46°50' E 031°57'0 0.0
2018-Feb-13 02:30N 46°50' E 031°57'0 0.0
2018-Feb-13 02:00N 46°50' E 031°57'0 0.0
2018-Feb-13 01:30N 46°50' E 031°57'0 0.0
2018-Feb-13 01:00N 46°50' E 031°57'0 0.0
2018-Feb-13 00:30N 46°50' E 031°57'0 0.0
2018-Feb-13 00:00N 46°50' E 031°57'0 0.0
2018-Feb-12 23:30N 46°50' E 031°57'0 0.0
2018-Feb-12 23:00N 46°50' E 031°57'0 0.0
2018-Feb-12 22:30N 46°50' E 031°57'0 0.0
2018-Feb-12 22:00N 46°50' E 031°57'0 0.0
2018-Feb-12 21:30N 46°50' E 031°57'0 0.0
2018-Feb-12 21:00N 46°50' E 031°57'0 0.0
2018-Feb-12 20:30N 46°50' E 031°57'0 0.0
2018-Feb-12 20:00N 46°50' E 031°57'0 0.0
2018-Feb-12 19:30N 46°50' E 031°57'0 0.0
2018-Feb-12 19:00N 46°50' E 031°57'0 0.0
2018-Feb-12 18:30N 46°50' E 031°57'0 0.0
2018-Feb-12 18:00N 46°50' E 031°57'0 0.0
2018-Feb-12 17:29N 46°50' E 031°57'0 0.0
2018-Feb-12 16:59N 46°50' E 031°57'0 0.0
2018-Feb-12 16:29N 46°50' E 031°57'0 0.0
2018-Feb-12 15:59N 46°50' E 031°57'0 0.0
2018-Feb-12 15:17N 46°50' E 031°57'0 0.0
2018-Feb-12 14:59N 46°50' E 031°57'0 0.0
2018-Feb-12 14:29N 46°50' E 031°57'0 0.0
2018-Feb-12 13:59N 46°50' E 031°57'0 0.0
2018-Feb-12 13:29N 46°50' E 031°57'0 0.0
2018-Feb-12 12:59N 46°50' E 031°57'0 0.0
2018-Feb-12 12:29N 46°50' E 031°57'0 0.0
2018-Feb-12 11:59N 46°50' E 031°57'0 0.0
2018-Feb-12 11:29N 46°50' E 031°57'0 0.0
2018-Feb-12 10:59N 46°50' E 031°57'0 0.0
2018-Feb-12 10:26N 46°50' E 031°57'0 0.0
2018-Feb-12 09:59N 46°50' E 031°57'0 0.0
2018-Feb-12 09:29N 46°50' E 031°57'0 0.0
2018-Feb-12 08:59N 46°50' E 031°57'0 0.0
2018-Feb-12 08:29N 46°50' E 031°57'0 0.0
2018-Feb-12 07:59N 46°50' E 031°57'0 0.0
2018-Feb-12 07:29N 46°50' E 031°57'0 0.0
2018-Feb-12 06:59N 46°50' E 031°57'0 0.0
2018-Feb-12 06:29N 46°50' E 031°57'0 0.0
2018-Feb-12 05:59N 46°50' E 031°57'0 0.0
2018-Feb-12 05:29N 46°50' E 031°57'0 0.0
2018-Feb-12 04:59N 46°50' E 031°57'0 0.0
2018-Feb-12 04:29N 46°50' E 031°57'0 0.0
2018-Feb-12 03:59N 46°50' E 031°57'0 0.0
2018-Feb-12 03:29N 46°50' E 031°57'0 0.0
2018-Feb-12 02:59N 46°50' E 031°57'0 0.0
2018-Feb-12 02:29N 46°50' E 031°57'0 0.0
2018-Feb-12 01:59N 46°50' E 031°57'0 0.0
2018-Feb-12 01:29N 46°50' E 031°57'0 0.0
2018-Feb-12 00:59N 46°50' E 031°57'0 0.0
2018-Feb-12 00:29N 46°50' E 031°57'0 0.0
2018-Feb-11 23:59N 46°50' E 031°57'0 0.0
2018-Feb-11 23:29N 46°50' E 031°57'0 0.0
2018-Feb-11 22:59N 46°50' E 031°57'0 0.0
2018-Feb-11 22:29N 46°50' E 031°57'0 0.0
2018-Feb-11 21:59N 46°50' E 031°57'0 0.0
2018-Feb-11 21:29N 46°50' E 031°57'0 0.0
2018-Feb-11 20:59N 46°50' E 031°57'0 0.0
2018-Feb-11 20:29N 46°50' E 031°57'0 0.0
2018-Feb-11 19:59N 46°50' E 031°57'0 0.0
2018-Feb-11 19:29N 46°50' E 031°57'0 0.0
2018-Feb-11 18:59N 46°50' E 031°57'0 0.0
2018-Feb-11 18:29N 46°50' E 031°57'0 0.0
2018-Feb-11 17:59N 46°50' E 031°57'0 0.0
2018-Feb-11 17:29N 46°50' E 031°57'0 0.0
2018-Feb-11 16:59N 46°50' E 031°57'0 0.0
2018-Feb-11 16:29N 46°50' E 031°57'0 0.0
2018-Feb-11 15:59N 46°50' E 031°57'0 0.0
2018-Feb-11 15:29N 46°50' E 031°57'0 0.0
2018-Feb-11 14:59N 46°50' E 031°57'0 0.0
2018-Feb-11 14:29N 46°50' E 031°57'0 0.0
2018-Feb-11 13:59N 46°50' E 031°57'0 0.0
2018-Feb-11 13:29N 46°50' E 031°57'0 0.0
2018-Feb-11 12:56N 46°50' E 031°57'0 0.0
2018-Feb-11 12:29N 46°50' E 031°57'0 0.0
2018-Feb-11 11:59N 46°50' E 031°57'0 0.0
2018-Feb-11 11:29N 46°50' E 031°57'0 0.0
2018-Feb-11 10:59N 46°50' E 031°57'0 0.0
2018-Feb-11 10:29N 46°50' E 031°57'1 1.3
2018-Feb-11 10:00N 46°50' E 031°56'3 6.4
2018-Feb-11 09:30N 46°48' E 031°53'5 9.4
2018-Feb-11 09:00N 46°43' E 031°56'5 9.7
2018-Feb-11 08:30N 46°39' E 031°55'5 9.3
2018-Feb-11 07:59N 46°36' E 031°49'3 6.9
2018-Feb-11 07:30N 46°36' E 031°44'4 8.4
2018-Feb-11 07:00N 46°36' E 031°38'6 8.3
2018-Feb-11 06:14N 46°36' E 031°29'8 9.2
2018-Feb-11 05:25N 46°35' E 031°18'11 9.8
2018-Feb-11 04:21N 46°34' E 031°03'3 8.0
2018-Feb-11 04:00N 46°33' E 030°59'4 8.4
2018-Feb-11 03:30N 46°29' E 030°57'5 9.7
2018-Feb-11 02:59N 46°24' E 030°57'  
Track history (hours):
 
Tides and Currents Weather Stations Pressure Air Temp Water Temp Dewpoint Dewpoint Depression Visibility Wind Speed Wind Dir Waves Ship Positions

Brave Heart

Last reported at 2018-Feb-19 23:10 UTC. Time now 2018-Feb-23 20:28 UTC.
Position N 36°04' E 030°31'.

; draft 7.4 m.

MMSI: 450535000.

Date/timePositionNaut miles runAvg speedWind from/ knotsBaromVisibWave heightAir tempDewpointWater temp
2018-Feb-19 23:10N 36°04' E 030°31'4 9.6
2018-Feb-19 22:44N 36°04' E 030°26'  
2018-Feb-15 12:33N 46°18' E 030°55'1 8.9
2018-Feb-15 12:29N 46°18' E 030°55'4 8.8
2018-Feb-15 12:00N 46°22' E 030°55'5 9.0
2018-Feb-15 11:30N 46°27' E 030°55'5 9.3
2018-Feb-15 11:00N 46°31' E 030°55'25 9.3
2018-Feb-15 08:19N 46°35' E 031°31'3 9.1
2018-Feb-15 08:00N 46°35' E 031°36'5 9.1
2018-Feb-15 07:29N 46°36' E 031°42'4 9.0
2018-Feb-15 07:00N 46°36' E 031°49'4 8.9
2018-Feb-15 06:31N 46°38' E 031°54'4 8.5
2018-Feb-15 06:00N 46°42' E 031°56'4 8.1
2018-Feb-15 05:30N 46°46' E 031°54'4 7.7
2018-Feb-15 05:00N 46°49' E 031°55'1 2.8
2018-Feb-15 04:30N 46°50' E 031°57'0 0.0
2018-Feb-15 04:00N 46°50' E 031°57'0 0.0
2018-Feb-15 03:30N 46°50' E 031°57'0 0.0
2018-Feb-15 03:00N 46°50' E 031°57'0 0.0
2018-Feb-15 02:30N 46°50' E 031°57'0 0.0
2018-Feb-15 01:59N 46°50' E 031°57'0 0.0
2018-Feb-15 01:29N 46°50' E 031°57'0 0.0
2018-Feb-15 00:59N 46°50' E 031°57'0 0.0
2018-Feb-15 00:29N 46°50' E 031°57'0 0.0
2018-Feb-14 23:59N 46°50' E 031°57'0 0.0
2018-Feb-14 23:29N 46°50' E 031°57'0 0.0
2018-Feb-14 22:59N 46°50' E 031°57'0 0.0
2018-Feb-14 22:29N 46°50' E 031°57'0 0.0
2018-Feb-14 21:59N 46°50' E 031°57'0 0.0
2018-Feb-14 21:29N 46°50' E 031°57'0 0.0
2018-Feb-14 20:59N 46°50' E 031°57'0 0.0
2018-Feb-14 20:29N 46°50' E 031°57'0 0.0
2018-Feb-14 19:56N 46°50' E 031°57'0 0.0
2018-Feb-14 19:29N 46°50' E 031°57'0 0.0
2018-Feb-14 18:59N 46°50' E 031°57'0 0.0
2018-Feb-14 18:26N 46°50' E 031°57'0 0.0
2018-Feb-14 17:59N 46°50' E 031°57'0 0.0
2018-Feb-14 17:29N 46°50' E 031°57'0 0.0
2018-Feb-14 16:59N 46°50' E 031°57'0 0.0
2018-Feb-14 16:29N 46°50' E 031°57'0 0.0
2018-Feb-14 15:59N 46°50' E 031°57'0 0.0
2018-Feb-14 15:29N 46°50' E 031°57'0 0.0
2018-Feb-14 14:59N 46°50' E 031°57'0 0.0
2018-Feb-14 14:26N 46°50' E 031°57'0 0.0
2018-Feb-14 13:59N 46°50' E 031°57'0 0.0
2018-Feb-14 13:29N 46°50' E 031°57'0 0.0
2018-Feb-14 12:59N 46°50' E 031°57'0 0.0
2018-Feb-14 12:29N 46°50' E 031°57'0 0.0
2018-Feb-14 11:59N 46°50' E 031°57'0 0.0
2018-Feb-14 11:29N 46°50' E 031°57'0 0.0
2018-Feb-14 10:59N 46°50' E 031°57'0 0.0
2018-Feb-14 10:29N 46°50' E 031°57'0 0.0
2018-Feb-14 09:59N 46°50' E 031°57'0 0.0
2018-Feb-14 09:30N 46°50' E 031°57'0 0.0
2018-Feb-14 08:58N 46°50' E 031°57'0 0.0
2018-Feb-14 08:28N 46°50' E 031°57'0 0.0
2018-Feb-14 07:58N 46°50' E 031°57'0 0.0
2018-Feb-14 07:28N 46°50' E 031°57'0 0.0
2018-Feb-14 06:58N 46°50' E 031°57'0 0.0
2018-Feb-14 06:28N 46°50' E 031°57'0 0.0
2018-Feb-14 05:58N 46°50' E 031°57'0 0.0
2018-Feb-14 05:25N 46°50' E 031°57'0 0.0
2018-Feb-14 04:58N 46°50' E 031°57'0 0.0
2018-Feb-14 04:28N 46°50' E 031°57'0 0.0
2018-Feb-14 03:58N 46°50' E 031°57'0 0.0
2018-Feb-14 03:28N 46°50' E 031°57'0 0.0
2018-Feb-14 02:58N 46°50' E 031°57'0 0.0
2018-Feb-14 02:31N 46°50' E 031°57'0 0.0
2018-Feb-14 02:00N 46°50' E 031°57'0 0.0
2018-Feb-14 01:30N 46°50' E 031°57'0 0.0
2018-Feb-14 01:00N 46°50' E 031°57'0 0.0
2018-Feb-14 00:30N 46°50' E 031°57'0 0.0
2018-Feb-14 00:00N 46°50' E 031°57'0 0.0
2018-Feb-13 23:30N 46°50' E 031°57'0 0.0
2018-Feb-13 23:00N 46°50' E 031°57'0 0.0
2018-Feb-13 22:30N 46°50' E 031°57'0 0.0
2018-Feb-13 22:00N 46°50' E 031°57'0 0.0
2018-Feb-13 21:30N 46°50' E 031°57'0 0.0
2018-Feb-13 21:00N 46°50' E 031°57'0 0.0
2018-Feb-13 20:30N 46°50' E 031°57'0 0.0
2018-Feb-13 20:00N 46°50' E 031°57'0 0.0
2018-Feb-13 19:30N 46°50' E 031°57'0 0.0
2018-Feb-13 18:57N 46°50' E 031°57'0 0.0
2018-Feb-13 18:30N 46°50' E 031°57'0 0.0
2018-Feb-13 18:00N 46°50' E 031°57'0 0.0
2018-Feb-13 17:30N 46°50' E 031°57'0 0.0
2018-Feb-13 17:00N 46°50' E 031°57'0 0.0
2018-Feb-13 16:30N 46°50' E 031°57'0 0.0
2018-Feb-13 16:00N 46°50' E 031°57'0 0.0
2018-Feb-13 15:30N 46°50' E 031°57'0 0.0
2018-Feb-13 15:00N 46°50' E 031°57'0 0.0
2018-Feb-13 14:30N 46°50' E 031°57'0 0.0
2018-Feb-13 14:00N 46°50' E 031°57'0 0.0
2018-Feb-13 13:30N 46°50' E 031°57'0 0.0
2018-Feb-13 13:00N 46°50' E 031°57'0 0.0
2018-Feb-13 12:30N 46°50' E 031°57'0 0.0
2018-Feb-13 12:00N 46°50' E 031°57'0 0.0
2018-Feb-13 11:30N 46°50' E 031°57'0 0.0
2018-Feb-13 11:00N 46°50' E 031°57'0 0.0
2018-Feb-13 10:30N 46°50' E 031°57'0 0.0
2018-Feb-13 10:00N 46°50' E 031°57'0 0.0
2018-Feb-13 09:30N 46°50' E 031°57'0 0.0
2018-Feb-13 09:00N 46°50' E 031°57'0 0.0
2018-Feb-13 08:30N 46°50' E 031°57'0 0.0
2018-Feb-13 08:00N 46°50' E 031°57'0 0.0
2018-Feb-13 07:30N 46°50' E 031°57'0 0.0
2018-Feb-13 07:00N 46°50' E 031°57'0 0.0
2018-Feb-13 06:27N 46°50' E 031°57'0 0.0
2018-Feb-13 06:00N 46°50' E 031°57'0 0.0
2018-Feb-13 05:30N 46°50' E 031°57'0 0.0
2018-Feb-13 05:00N 46°50' E 031°57'0 0.0
2018-Feb-13 04:30N 46°50' E 031°57'0 0.0
2018-Feb-13 04:00N 46°50' E 031°57'0 0.0
2018-Feb-13 03:30N 46°50' E 031°57'0 0.0
2018-Feb-13 03:00N 46°50' E 031°57'0 0.0
2018-Feb-13 02:30N 46°50' E 031°57'0 0.0
2018-Feb-13 02:00N 46°50' E 031°57'0 0.0
2018-Feb-13 01:30N 46°50' E 031°57'0 0.0
2018-Feb-13 01:00N 46°50' E 031°57'0 0.0
2018-Feb-13 00:30N 46°50' E 031°57'0 0.0
2018-Feb-13 00:00N 46°50' E 031°57'0 0.0
2018-Feb-12 23:30N 46°50' E 031°57'0 0.0
2018-Feb-12 23:00N 46°50' E 031°57'0 0.0
2018-Feb-12 22:30N 46°50' E 031°57'0 0.0
2018-Feb-12 22:00N 46°50' E 031°57'0 0.0
2018-Feb-12 21:30N 46°50' E 031°57'0 0.0
2018-Feb-12 21:00N 46°50' E 031°57'0 0.0
2018-Feb-12 20:30N 46°50' E 031°57'0 0.0
2018-Feb-12 20:00N 46°50' E 031°57'0 0.0
2018-Feb-12 19:30N 46°50' E 031°57'0 0.0
2018-Feb-12 19:00N 46°50' E 031°57'0 0.0
2018-Feb-12 18:30N 46°50' E 031°57'0 0.0
2018-Feb-12 18:00N 46°50' E 031°57'0 0.0
2018-Feb-12 17:29N 46°50' E 031°57'0 0.0
2018-Feb-12 16:59N 46°50' E 031°57'0 0.0
2018-Feb-12 16:29N 46°50' E 031°57'0 0.0
2018-Feb-12 15:59N 46°50' E 031°57'0 0.0
2018-Feb-12 15:17N 46°50' E 031°57'0 0.0
2018-Feb-12 14:59N 46°50' E 031°57'0 0.0
2018-Feb-12 14:29N 46°50' E 031°57'0 0.0
2018-Feb-12 13:59N 46°50' E 031°57'0 0.0
2018-Feb-12 13:29N 46°50' E 031°57'0 0.0
2018-Feb-12 12:59N 46°50' E 031°57'0 0.0
2018-Feb-12 12:29N 46°50' E 031°57'0 0.0
2018-Feb-12 11:59N 46°50' E 031°57'0 0.0
2018-Feb-12 11:29N 46°50' E 031°57'0 0.0
2018-Feb-12 10:59N 46°50' E 031°57'0 0.0
2018-Feb-12 10:26N 46°50' E 031°57'0 0.0
2018-Feb-12 09:59N 46°50' E 031°57'0 0.0
2018-Feb-12 09:29N 46°50' E 031°57'0 0.0
2018-Feb-12 08:59N 46°50' E 031°57'0 0.0
2018-Feb-12 08:29N 46°50' E 031°57'0 0.0
2018-Feb-12 07:59N 46°50' E 031°57'0 0.0
2018-Feb-12 07:29N 46°50' E 031°57'0 0.0
2018-Feb-12 06:59N 46°50' E 031°57'0 0.0
2018-Feb-12 06:29N 46°50' E 031°57'0 0.0
2018-Feb-12 05:59N 46°50' E 031°57'0 0.0
2018-Feb-12 05:29N 46°50' E 031°57'0 0.0
2018-Feb-12 04:59N 46°50' E 031°57'0 0.0
2018-Feb-12 04:29N 46°50' E 031°57'0 0.0
2018-Feb-12 03:59N 46°50' E 031°57'0 0.0
2018-Feb-12 03:29N 46°50' E 031°57'0 0.0
2018-Feb-12 02:59N 46°50' E 031°57'0 0.0
2018-Feb-12 02:29N 46°50' E 031°57'0 0.0
2018-Feb-12 01:59N 46°50' E 031°57'0 0.0
2018-Feb-12 01:29N 46°50' E 031°57'0 0.0
2018-Feb-12 00:59N 46°50' E 031°57'0 0.0
2018-Feb-12 00:29N 46°50' E 031°57'0 0.0
2018-Feb-11 23:59N 46°50' E 031°57'0 0.0
2018-Feb-11 23:29N 46°50' E 031°57'0 0.0
2018-Feb-11 22:59N 46°50' E 031°57'0 0.0
2018-Feb-11 22:29N 46°50' E 031°57'0 0.0
2018-Feb-11 21:59N 46°50' E 031°57'0 0.0
2018-Feb-11 21:29N 46°50' E 031°57'0 0.0
2018-Feb-11 20:59N 46°50' E 031°57'0 0.0
2018-Feb-11 20:29N 46°50' E 031°57'0 0.0
2018-Feb-11 19:59N 46°50' E 031°57'0 0.0
2018-Feb-11 19:29N 46°50' E 031°57'0 0.0
2018-Feb-11 18:59N 46°50' E 031°57'0 0.0
2018-Feb-11 18:29N 46°50' E 031°57'0 0.0
2018-Feb-11 17:59N 46°50' E 031°57'0 0.0
2018-Feb-11 17:29N 46°50' E 031°57'0 0.0
2018-Feb-11 16:59N 46°50' E 031°57'0 0.0
2018-Feb-11 16:29N 46°50' E 031°57'0 0.0
2018-Feb-11 15:59N 46°50' E 031°57'0 0.0
2018-Feb-11 15:29N 46°50' E 031°57'0 0.0
2018-Feb-11 14:59N 46°50' E 031°57'0 0.0
2018-Feb-11 14:29N 46°50' E 031°57'0 0.0
2018-Feb-11 13:59N 46°50' E 031°57'0 0.0
2018-Feb-11 13:29N 46°50' E 031°57'0 0.0
2018-Feb-11 12:56N 46°50' E 031°57'0 0.0
2018-Feb-11 12:29N 46°50' E 031°57'0 0.0
2018-Feb-11 11:59N 46°50' E 031°57'0 0.0
2018-Feb-11 11:29N 46°50' E 031°57'0 0.0
2018-Feb-11 10:59N 46°50' E 031°57'0 0.0
2018-Feb-11 10:29N 46°50' E 031°57'1 1.3
2018-Feb-11 10:00N 46°50' E 031°56'3 6.4
2018-Feb-11 09:30N 46°48' E 031°53'5 9.4
2018-Feb-11 09:00N 46°43' E 031°56'5 9.7
2018-Feb-11 08:30N 46°39' E 031°55'5 9.3
2018-Feb-11 07:59N 46°36' E 031°49'3 6.9
2018-Feb-11 07:30N 46°36' E 031°44'4 8.4
2018-Feb-11 07:00N 46°36' E 031°38'6 8.3
2018-Feb-11 06:14N 46°36' E 031°29'8 9.2
2018-Feb-11 05:25N 46°35' E 031°18'11 9.8
2018-Feb-11 04:21N 46°34' E 031°03'3 8.0
2018-Feb-11 04:00N 46°33' E 030°59'4 8.4
2018-Feb-11 03:30N 46°29' E 030°57'5 9.7
2018-Feb-11 02:59N 46°24' E 030°57'  

Dump ship's entire track history